sensor_id;sensor_type;location;lat;lon;timestamp;P1;P2;P0
86041;PMS7003;76639;53.064;18.818;2024-02-26T12:53:56;5;4;3
86041;PMS7003;76639;53.064;18.818;2024-02-26T16:00:31;0;0;0
86041;PMS7003;76639;53.064;18.818;2024-02-26T16:03:46;2;2;2
86041;PMS7003;76639;53.064;18.818;2024-02-26T16:07:01;2;1;1
86041;PMS7003;76639;53.064;18.818;2024-02-26T16:10:17;13;3;2
86041;PMS7003;76639;53.064;18.818;2024-02-26T16:13:40;5;3;2
86041;PMS7003;76639;53.064;18.818;2024-02-26T16:16:55;3;2;2
86041;PMS7003;76639;53.064;18.818;2024-02-26T16:20:10;3;2;1
86041;PMS7003;76639;53.064;18.818;2024-02-26T16:23:28;1;1;1
86041;PMS7003;76639;53.064;18.818;2024-02-26T16:26:50;2;2;1
86041;PMS7003;76639;53.064;18.818;2024-02-26T16:30:04;1;1;1
86041;PMS7003;76639;53.064;18.818;2024-02-26T16:33:17;3;2;1
86041;PMS7003;76639;53.064;18.818;2024-02-26T16:36:31;1;0;0
86041;PMS7003;76639;53.064;18.818;2024-02-26T16:39:44;7;3;3
86041;PMS7003;76639;53.064;18.818;2024-02-26T16:42:56;3;3;2
86041;PMS7003;76639;53.064;18.818;2024-02-26T16:46:09;5;2;1
86041;PMS7003;76639;53.064;18.818;2024-02-26T16:49:24;4;4;3
86041;PMS7003;76639;53.064;18.818;2024-02-26T16:52:40;5;2;0
86041;PMS7003;76639;53.064;18.818;2024-02-26T16:55:52;5;2;0
86041;PMS7003;76639;53.064;18.818;2024-02-26T16:59:07;3;1;1
86041;PMS7003;76639;53.064;18.818;2024-02-26T17:02:20;1;1;1
86041;PMS7003;76639;53.064;18.818;2024-02-26T17:05:32;1;1;1
86041;PMS7003;76639;53.064;18.818;2024-02-26T17:08:44;6;1;1
86041;PMS7003;76639;53.064;18.818;2024-02-26T17:11:58;0;0;0
86041;PMS7003;76639;53.064;18.818;2024-02-26T17:15:12;0;0;0
86041;PMS7003;76639;53.064;18.818;2024-02-26T17:18:25;0;0;0
86041;PMS7003;76639;53.064;18.818;2024-02-26T17:21:37;0;0;0
86041;PMS7003;76639;53.064;18.818;2024-02-26T17:24:50;2;0;0
86041;PMS7003;76639;53.064;18.818;2024-02-26T17:28:02;1;1;0
86041;PMS7003;76639;53.064;18.818;2024-02-26T17:31:17;0;0;0
86041;PMS7003;76639;53.064;18.818;2024-02-26T17:34:32;1;1;1
86041;PMS7003;76639;53.064;18.818;2024-02-26T17:37:45;1;1;0
86041;PMS7003;76639;53.064;18.818;2024-02-26T17:41:00;1;1;0
86041;PMS7003;76639;53.064;18.818;2024-02-26T17:44:15;1;1;0
86041;PMS7003;76639;53.064;18.818;2024-02-26T17:47:40;1;0;0
86041;PMS7003;76639;53.064;18.818;2024-02-26T17:50:53;0;0;0
86041;PMS7003;76639;53.064;18.818;2024-02-26T17:54:07;0;0;0
86041;PMS7003;76639;53.064;18.818;2024-02-26T17:57:19;2;1;0
86041;PMS7003;76639;53.064;18.818;2024-02-26T18:00:32;0;0;0
86041;PMS7003;76639;53.064;18.818;2024-02-26T18:03:44;0;0;0
86041;PMS7003;76639;53.064;18.818;2024-02-26T18:06:58;0;0;0
86041;PMS7003;76639;53.064;18.818;2024-02-26T18:10:11;1;1;0
86041;PMS7003;76639;53.064;18.818;2024-02-26T18:13:26;1;0;0
86041;PMS7003;76639;53.064;18.818;2024-02-26T18:16:39;1;1;1
86041;PMS7003;76639;53.064;18.818;2024-02-26T18:19:52;1;0;0
86041;PMS7003;76639;53.064;18.818;2024-02-26T18:23:07;7;1;1
86041;PMS7003;76639;53.064;18.818;2024-02-26T18:26:20;3;0;0
86041;PMS7003;76639;53.064;18.818;2024-02-26T18:29:34;0;0;0
86041;PMS7003;76639;53.064;18.818;2024-02-26T18:32:46;1;1;1
86041;PMS7003;76639;53.064;18.818;2024-02-26T18:35:59;0;0;0
86041;PMS7003;76639;53.064;18.818;2024-02-26T18:39:15;1;1;1
86041;PMS7003;76639;53.064;18.818;2024-02-26T18:42:29;0;0;0
86041;PMS7003;76639;53.064;18.818;2024-02-26T18:45:44;0;0;0
86041;PMS7003;76639;53.064;18.818;2024-02-26T18:49:09;2;1;0
86041;PMS7003;76639;53.064;18.818;2024-02-26T18:52:22;2;2;1
86041;PMS7003;76639;53.064;18.818;2024-02-26T18:55:34;2;2;1
86041;PMS7003;76639;53.064;18.818;2024-02-26T18:58:48;1;0;0
86041;PMS7003;76639;53.064;18.818;2024-02-26T19:02:01;2;1;0
86041;PMS7003;76639;53.064;18.818;2024-02-26T19:05:15;1;1;1
86041;PMS7003;76639;53.064;18.818;2024-02-26T19:08:30;1;1;1
86041;PMS7003;76639;53.064;18.818;2024-02-26T19:11:47;3;1;0
86041;PMS7003;76639;53.064;18.818;2024-02-26T19:15:01;1;1;1
86041;PMS7003;76639;53.064;18.818;2024-02-26T19:18:19;2;1;1
86041;PMS7003;76639;53.064;18.818;2024-02-26T19:21:41;2;1;1
86041;PMS7003;76639;53.064;18.818;2024-02-26T19:24:56;1;1;1
86041;PMS7003;76639;53.064;18.818;2024-02-26T19:28:09;4;2;2
86041;PMS7003;76639;53.064;18.818;2024-02-26T19:31:25;5;3;2
86041;PMS7003;76639;53.064;18.818;2024-02-26T19:34:37;1;1;0
86041;PMS7003;76639;53.064;18.818;2024-02-26T19:37:49;3;2;1
86041;PMS7003;76639;53.064;18.818;2024-02-26T19:41:02;4;4;2
86041;PMS7003;76639;53.064;18.818;2024-02-26T19:44:14;3;2;1
86041;PMS7003;76639;53.064;18.818;2024-02-26T19:47:27;2;2;2
86041;PMS7003;76639;53.064;18.818;2024-02-26T19:50:42;3;3;3
86041;PMS7003;76639;53.064;18.818;2024-02-26T19:53:54;3;2;1
86041;PMS7003;76639;53.064;18.818;2024-02-26T19:57:08;9;4;3
86041;PMS7003;76639;53.064;18.818;2024-02-26T20:00:24;5;3;2
86041;PMS7003;76639;53.064;18.818;2024-02-26T20:03:38;7;3;1
86041;PMS7003;76639;53.064;18.818;2024-02-26T20:06:59;5;4;4
86041;PMS7003;76639;53.064;18.818;2024-02-26T20:10:13;10;4;3
86041;PMS7003;76639;53.064;18.818;2024-02-26T20:13:26;9;4;3
86041;PMS7003;76639;53.064;18.818;2024-02-26T20:16:40;6;5;3
86041;PMS7003;76639;53.064;18.818;2024-02-26T20:19:56;10;8;5
86041;PMS7003;76639;53.064;18.818;2024-02-26T20:23:09;7;5;3
86041;PMS7003;76639;53.064;18.818;2024-02-26T20:26:22;9;7;5
86041;PMS7003;76639;53.064;18.818;2024-02-26T20:29:35;12;8;6
86041;PMS7003;76639;53.064;18.818;2024-02-26T20:32:49;5;5;4
86041;PMS7003;76639;53.064;18.818;2024-02-26T20:36:09;12;8;6
86041;PMS7003;76639;53.064;18.818;2024-02-26T20:39:30;5;5;4
86041;PMS7003;76639;53.064;18.818;2024-02-26T20:42:50;14;10;7
86041;PMS7003;76639;53.064;18.818;2024-02-26T20:46:03;12;7;5
86041;PMS7003;76639;53.064;18.818;2024-02-26T20:49:16;10;6;5
86041;PMS7003;76639;53.064;18.818;2024-02-26T20:52:29;10;6;5
86041;PMS7003;76639;53.064;18.818;2024-02-26T20:55:41;8;6;5
86041;PMS7003;76639;53.064;18.818;2024-02-26T20:58:54;8;4;4
86041;PMS7003;76639;53.064;18.818;2024-02-26T21:02:07;4;4;4
86041;PMS7003;76639;53.064;18.818;2024-02-26T21:05:19;9;5;4
86041;PMS7003;76639;53.064;18.818;2024-02-26T21:08:33;8;4;3
86041;PMS7003;76639;53.064;18.818;2024-02-26T21:11:45;16;7;5
86041;PMS7003;76639;53.064;18.818;2024-02-26T21:14:58;7;7;3
86041;PMS7003;76639;53.064;18.818;2024-02-26T21:18:12;13;10;6
86041;PMS7003;76639;53.064;18.818;2024-02-26T21:21:25;13;10;7
86041;PMS7003;76639;53.064;18.818;2024-02-26T21:24:51;14;11;8
86041;PMS7003;76639;53.064;18.818;2024-02-26T21:28:05;30;15;9
86041;PMS7003;76639;53.064;18.818;2024-02-26T21:31:18;24;14;10
86041;PMS7003;76639;53.064;18.818;2024-02-26T21:34:31;14;12;10
86041;PMS7003;76639;53.064;18.818;2024-02-26T21:37:44;13;13;10
86041;PMS7003;76639;53.064;18.818;2024-02-26T21:40:57;21;14;10
86041;PMS7003;76639;53.064;18.818;2024-02-26T21:44:10;15;12;10
86041;PMS7003;76639;53.064;18.818;2024-02-26T21:47:25;7;6;6
86041;PMS7003;76639;53.064;18.818;2024-02-26T21:50:37;8;6;4
86041;PMS7003;76639;53.064;18.818;2024-02-26T21:53:52;9;8;5
86041;PMS7003;76639;53.064;18.818;2024-02-26T21:57:06;8;6;5
86041;PMS7003;76639;53.064;18.818;2024-02-26T22:00:18;10;6;4
86041;PMS7003;76639;53.064;18.818;2024-02-26T22:03:31;11;9;7
86041;PMS7003;76639;53.064;18.818;2024-02-26T22:06:46;9;5;4
86041;PMS7003;76639;53.064;18.818;2024-02-26T22:09:59;7;7;6
86041;PMS7003;76639;53.064;18.818;2024-02-26T22:13:11;5;3;2
86041;PMS7003;76639;53.064;18.818;2024-02-26T22:16:24;6;5;4
86041;PMS7003;76639;53.064;18.818;2024-02-26T22:19:37;7;6;5
86041;PMS7003;76639;53.064;18.818;2024-02-26T22:22:50;3;2;1
86041;PMS7003;76639;53.064;18.818;2024-02-26T22:26:03;9;7;6
86041;PMS7003;76639;53.064;18.818;2024-02-26T22:29:17;12;4;3
86041;PMS7003;76639;53.064;18.818;2024-02-26T22:32:29;16;8;6
86041;PMS7003;76639;53.064;18.818;2024-02-26T22:35:41;8;5;4
86041;PMS7003;76639;53.064;18.818;2024-02-26T22:38:53;12;9;7
86041;PMS7003;76639;53.064;18.818;2024-02-26T22:42:07;11;10;8
86041;PMS7003;76639;53.064;18.818;2024-02-26T22:45:20;17;11;10
86041;PMS7003;76639;53.064;18.818;2024-02-26T22:48:36;17;11;8
86041;PMS7003;76639;53.064;18.818;2024-02-26T22:51:48;16;11;8
86041;PMS7003;76639;53.064;18.818;2024-02-26T22:55:01;10;8;7
86041;PMS7003;76639;53.064;18.818;2024-02-26T22:58:14;10;7;5
86041;PMS7003;76639;53.064;18.818;2024-02-26T23:01:27;11;10;6
86041;PMS7003;76639;53.064;18.818;2024-02-26T23:04:41;15;10;8
86041;PMS7003;76639;53.064;18.818;2024-02-26T23:07:54;14;8;6
86041;PMS7003;76639;53.064;18.818;2024-02-26T23:11:07;18;14;12
86041;PMS7003;76639;53.064;18.818;2024-02-26T23:14:20;21;15;12
86041;PMS7003;76639;53.064;18.818;2024-02-26T23:17:32;5;3;3
86041;PMS7003;76639;53.064;18.818;2024-02-26T23:20:45;14;12;9
86041;PMS7003;76639;53.064;18.818;2024-02-26T23:23:57;13;9;6
86041;PMS7003;76639;53.064;18.818;2024-02-26T23:27:10;17;9;6
86041;PMS7003;76639;53.064;18.818;2024-02-26T23:30:22;5;1;0
86041;PMS7003;76639;53.064;18.818;2024-02-26T23:33:34;5;3;3
86041;PMS7003;76639;53.064;18.818;2024-02-26T23:36:47;4;3;1
86041;PMS7003;76639;53.064;18.818;2024-02-26T23:39:59;13;4;3
86041;PMS7003;76639;53.064;18.818;2024-02-26T23:43:13;7;3;2
86041;PMS7003;76639;53.064;18.818;2024-02-26T23:46:30;4;1;1
86041;PMS7003;76639;53.064;18.818;2024-02-26T23:49:44;9;5;2
86041;PMS7003;76639;53.064;18.818;2024-02-26T23:53:06;11;6;5
86041;PMS7003;76639;53.064;18.818;2024-02-26T23:56:19;7;6;5
86041;PMS7003;76639;53.064;18.818;2024-02-26T23:59:32;7;4;3
